sensor_id;sensor_type;location;lat;lon;timestamp;temperature;humidity
73137;DHT22;62977;45.636;11.750;2023-01-16T00:01:02;8.40;88.10
73137;DHT22;62977;45.636;11.750;2023-01-16T00:03:27;8.30;88.20
73137;DHT22;62977;45.636;11.750;2023-01-16T00:05:53;8.30;87.90
73137;DHT22;62977;45.636;11.750;2023-01-16T00:08:19;8.30;88.00
73137;DHT22;62977;45.636;11.750;2023-01-16T00:10:45;8.40;88.10
73137;DHT22;62977;45.636;11.750;2023-01-16T00:13:12;8.30;88.20
73137;DHT22;62977;45.636;11.750;2023-01-16T00:15:38;8.20;88.30
73137;DHT22;62977;45.636;11.750;2023-01-16T00:18:04;8.30;88.30
73137;DHT22;62977;45.636;11.750;2023-01-16T00:20:29;8.20;88.30
73137;DHT22;62977;45.636;11.750;2023-01-16T00:22:55;8.10;88.40
73137;DHT22;62977;45.636;11.750;2023-01-16T00:25:21;8.10;88.60
73137;DHT22;62977;45.636;11.750;2023-01-16T00:27:46;8.10;88.80
73137;DHT22;62977;45.636;11.750;2023-01-16T00:30:12;8.20;89.10
73137;DHT22;62977;45.636;11.750;2023-01-16T00:32:38;8.10;88.70
73137;DHT22;62977;45.636;11.750;2023-01-16T00:35:04;8.10;88.90
73137;DHT22;62977;45.636;11.750;2023-01-16T00:37:30;8.10;89.00
73137;DHT22;62977;45.636;11.750;2023-01-16T00:39:55;8.10;89.20
73137;DHT22;62977;45.636;11.750;2023-01-16T00:42:21;8.20;89.00
73137;DHT22;62977;45.636;11.750;2023-01-16T00:44:46;8.20;88.90
73137;DHT22;62977;45.636;11.750;2023-01-16T00:47:12;8.00;89.10
73137;DHT22;62977;45.636;11.750;2023-01-16T00:49:38;8.10;88.80
73137;DHT22;62977;45.636;11.750;2023-01-16T00:52:04;8.20;89.00
73137;DHT22;62977;45.636;11.750;2023-01-16T00:54:30;8.10;89.10
73137;DHT22;62977;45.636;11.750;2023-01-16T00:56:56;8.10;89.20
73137;DHT22;62977;45.636;11.750;2023-01-16T00:59:21;8.10;89.00
73137;DHT22;62977;45.636;11.750;2023-01-16T01:01:47;8.10;89.00
73137;DHT22;62977;45.636;11.750;2023-01-16T01:04:13;8.10;89.10
73137;DHT22;62977;45.636;11.750;2023-01-16T01:06:39;8.00;89.10
73137;DHT22;62977;45.636;11.750;2023-01-16T01:09:05;8.00;88.90
73137;DHT22;62977;45.636;11.750;2023-01-16T01:11:31;7.90;89.10
73137;DHT22;62977;45.636;11.750;2023-01-16T01:13:57;8.10;89.20
73137;DHT22;62977;45.636;11.750;2023-01-16T01:16:23;7.90;89.30
73137;DHT22;62977;45.636;11.750;2023-01-16T01:18:49;8.00;89.30
73137;DHT22;62977;45.636;11.750;2023-01-16T01:21:15;8.00;89.40
73137;DHT22;62977;45.636;11.750;2023-01-16T01:23:40;8.00;89.20
73137;DHT22;62977;45.636;11.750;2023-01-16T01:26:15;8.00;89.30
73137;DHT22;62977;45.636;11.750;2023-01-16T01:28:41;8.10;88.90
73137;DHT22;62977;45.636;11.750;2023-01-16T01:31:10;8.10;88.90
73137;DHT22;62977;45.636;11.750;2023-01-16T01:33:36;8.00;88.70
73137;DHT22;62977;45.636;11.750;2023-01-16T01:36:03;8.10;89.00
73137;DHT22;62977;45.636;11.750;2023-01-16T01:38:28;8.00;88.90
73137;DHT22;62977;45.636;11.750;2023-01-16T01:40:54;8.10;89.10
73137;DHT22;62977;45.636;11.750;2023-01-16T01:43:20;7.90;88.60
73137;DHT22;62977;45.636;11.750;2023-01-16T01:45:52;7.80;89.10
73137;DHT22;62977;45.636;11.750;2023-01-16T01:48:23;7.60;89.70
73137;DHT22;62977;45.636;11.750;2023-01-16T01:51:06;7.70;89.90
73137;DHT22;62977;45.636;11.750;2023-01-16T01:53:41;7.50;90.10
73137;DHT22;62977;45.636;11.750;2023-01-16T01:56:19;7.60;90.20
73137;DHT22;62977;45.636;11.750;2023-01-16T01:58:49;7.70;90.20
73137;DHT22;62977;45.636;11.750;2023-01-16T02:01:15;7.70;90.20
73137;DHT22;62977;45.636;11.750;2023-01-16T02:03:45;7.70;90.00
73137;DHT22;62977;45.636;11.750;2023-01-16T02:06:19;7.80;89.80
73137;DHT22;62977;45.636;11.750;2023-01-16T02:08:46;7.80;89.80
73137;DHT22;62977;45.636;11.750;2023-01-16T02:11:20;7.80;89.50
73137;DHT22;62977;45.636;11.750;2023-01-16T02:13:56;7.90;89.40
73137;DHT22;62977;45.636;11.750;2023-01-16T02:16:23;8.00;89.30
73137;DHT22;62977;45.636;11.750;2023-01-16T02:19:35;7.90;89.30
73137;DHT22;62977;45.636;11.750;2023-01-16T02:22:22;8.10;89.00
73137;DHT22;62977;45.636;11.750;2023-01-16T02:25:32;8.10;88.90
73137;DHT22;62977;45.636;11.750;2023-01-16T02:31:13;8.00;89.20
73137;DHT22;62977;45.636;11.750;2023-01-16T02:39:22;8.10;88.90
73137;DHT22;62977;45.636;11.750;2023-01-16T02:42:10;8.20;88.80
73137;DHT22;62977;45.636;11.750;2023-01-16T02:50:34;8.20;88.40
73137;DHT22;62977;45.636;11.750;2023-01-16T02:53:21;8.10;88.70
73137;DHT22;62977;45.636;11.750;2023-01-16T02:55:56;7.90;89.10
73137;DHT22;62977;45.636;11.750;2023-01-16T02:58:29;7.90;89.30
73137;DHT22;62977;45.636;11.750;2023-01-16T03:00:57;8.00;89.50
73137;DHT22;62977;45.636;11.750;2023-01-16T03:05:55;8.00;89.00
73137;DHT22;62977;45.636;11.750;2023-01-16T03:08:42;8.00;89.10
73137;DHT22;62977;45.636;11.750;2023-01-16T03:11:18;8.10;88.80
73137;DHT22;62977;45.636;11.750;2023-01-16T03:14:10;8.10;88.70
73137;DHT22;62977;45.636;11.750;2023-01-16T03:25:24;8.10;89.10
73137;DHT22;62977;45.636;11.750;2023-01-16T03:31:05;8.00;88.90
73137;DHT22;62977;45.636;11.750;2023-01-16T03:36:21;8.20;89.00
73137;DHT22;62977;45.636;11.750;2023-01-16T03:38:51;8.20;88.50
73137;DHT22;62977;45.636;11.750;2023-01-16T03:41:20;8.30;88.60
73137;DHT22;62977;45.636;11.750;2023-01-16T03:43:50;8.30;88.40
73137;DHT22;62977;45.636;11.750;2023-01-16T03:46:19;8.30;88.40
73137;DHT22;62977;45.636;11.750;2023-01-16T03:49:01;8.20;88.50
73137;DHT22;62977;45.636;11.750;2023-01-16T03:51:31;8.20;88.50
73137;DHT22;62977;45.636;11.750;2023-01-16T03:54:09;8.20;88.60
73137;DHT22;62977;45.636;11.750;2023-01-16T03:56:50;8.10;88.70
73137;DHT22;62977;45.636;11.750;2023-01-16T03:59:19;8.00;89.00
73137;DHT22;62977;45.636;11.750;2023-01-16T04:01:47;8.10;89.30
73137;DHT22;62977;45.636;11.750;2023-01-16T04:04:27;8.20;89.00
73137;DHT22;62977;45.636;11.750;2023-01-16T04:09:46;8.00;89.20
73137;DHT22;62977;45.636;11.750;2023-01-16T04:12:17;7.90;89.40
73137;DHT22;62977;45.636;11.750;2023-01-16T04:14:48;8.00;89.60
73137;DHT22;62977;45.636;11.750;2023-01-16T04:17:16;8.10;89.70
73137;DHT22;62977;45.636;11.750;2023-01-16T04:19:43;8.20;89.40
73137;DHT22;62977;45.636;11.750;2023-01-16T04:22:21;8.00;89.10
73137;DHT22;62977;45.636;11.750;2023-01-16T04:24:48;8.00;89.00
73137;DHT22;62977;45.636;11.750;2023-01-16T04:27:15;8.00;89.50
73137;DHT22;62977;45.636;11.750;2023-01-16T04:29:49;8.10;89.60
73137;DHT22;62977;45.636;11.750;2023-01-16T04:32:15;8.00;89.40
73137;DHT22;62977;45.636;11.750;2023-01-16T04:34:40;8.10;89.50
73137;DHT22;62977;45.636;11.750;2023-01-16T04:37:06;8.20;89.50
73137;DHT22;62977;45.636;11.750;2023-01-16T04:39:32;8.20;89.20
73137;DHT22;62977;45.636;11.750;2023-01-16T04:41:57;8.20;89.10
73137;DHT22;62977;45.636;11.750;2023-01-16T04:44:24;8.10;89.00
73137;DHT22;62977;45.636;11.750;2023-01-16T04:46:50;8.20;89.00
73137;DHT22;62977;45.636;11.750;2023-01-16T04:49:15;8.20;89.20
73137;DHT22;62977;45.636;11.750;2023-01-16T04:51:41;8.20;89.10
73137;DHT22;62977;45.636;11.750;2023-01-16T04:54:09;8.20;88.90
73137;DHT22;62977;45.636;11.750;2023-01-16T04:56:38;8.10;89.00
73137;DHT22;62977;45.636;11.750;2023-01-16T04:59:04;8.10;89.10
73137;DHT22;62977;45.636;11.750;2023-01-16T05:01:29;8.10;88.90
73137;DHT22;62977;45.636;11.750;2023-01-16T05:04:00;8.10;88.90
73137;DHT22;62977;45.636;11.750;2023-01-16T05:06:26;8.20;89.20
73137;DHT22;62977;45.636;11.750;2023-01-16T05:08:52;8.10;89.00
73137;DHT22;62977;45.636;11.750;2023-01-16T05:11:18;8.00;89.10
73137;DHT22;62977;45.636;11.750;2023-01-16T05:13:43;8.10;89.00
73137;DHT22;62977;45.636;11.750;2023-01-16T05:16:09;8.10;89.30
73137;DHT22;62977;45.636;11.750;2023-01-16T05:18:35;8.00;89.10
73137;DHT22;62977;45.636;11.750;2023-01-16T05:21:00;8.00;89.40
73137;DHT22;62977;45.636;11.750;2023-01-16T05:23:27;8.00;89.50
73137;DHT22;62977;45.636;11.750;2023-01-16T05:25:52;8.20;89.40
73137;DHT22;62977;45.636;11.750;2023-01-16T05:28:19;8.20;89.40
73137;DHT22;62977;45.636;11.750;2023-01-16T05:30:47;8.10;89.20
73137;DHT22;62977;45.636;11.750;2023-01-16T05:33:13;8.30;89.40
73137;DHT22;62977;45.636;11.750;2023-01-16T05:35:39;8.30;88.90
73137;DHT22;62977;45.636;11.750;2023-01-16T05:38:04;8.30;89.00
73137;DHT22;62977;45.636;11.750;2023-01-16T05:40:30;8.20;88.80
73137;DHT22;62977;45.636;11.750;2023-01-16T05:42:56;8.20;88.90
73137;DHT22;62977;45.636;11.750;2023-01-16T05:45:21;8.20;88.90
73137;DHT22;62977;45.636;11.750;2023-01-16T05:47:47;8.40;89.10
73137;DHT22;62977;45.636;11.750;2023-01-16T05:50:33;8.40;88.90
73137;DHT22;62977;45.636;11.750;2023-01-16T05:52:59;8.30;89.00
73137;DHT22;62977;45.636;11.750;2023-01-16T05:55:24;8.30;88.90
73137;DHT22;62977;45.636;11.750;2023-01-16T05:57:50;8.20;89.00
73137;DHT22;62977;45.636;11.750;2023-01-16T06:00:17;8.30;89.00
73137;DHT22;62977;45.636;11.750;2023-01-16T06:02:43;8.20;88.80
73137;DHT22;62977;45.636;11.750;2023-01-16T06:05:09;8.30;88.80
73137;DHT22;62977;45.636;11.750;2023-01-16T06:07:34;8.30;88.50
73137;DHT22;62977;45.636;11.750;2023-01-16T06:10:00;8.20;88.70
73137;DHT22;62977;45.636;11.750;2023-01-16T06:12:26;8.20;88.40
73137;DHT22;62977;45.636;11.750;2023-01-16T06:14:52;8.30;88.10
73137;DHT22;62977;45.636;11.750;2023-01-16T06:17:17;8.20;87.70
73137;DHT22;62977;45.636;11.750;2023-01-16T06:19:44;8.20;87.50
73137;DHT22;62977;45.636;11.750;2023-01-16T06:22:11;8.20;87.60
73137;DHT22;62977;45.636;11.750;2023-01-16T06:24:37;8.20;87.60
73137;DHT22;62977;45.636;11.750;2023-01-16T06:27:02;8.10;87.60
73137;DHT22;62977;45.636;11.750;2023-01-16T06:29:28;8.20;87.60
73137;DHT22;62977;45.636;11.750;2023-01-16T06:31:54;8.30;87.70
73137;DHT22;62977;45.636;11.750;2023-01-16T06:34:19;8.10;87.90
73137;DHT22;62977;45.636;11.750;2023-01-16T06:36:45;8.10;88.00
73137;DHT22;62977;45.636;11.750;2023-01-16T06:39:13;8.10;88.00
73137;DHT22;62977;45.636;11.750;2023-01-16T06:41:39;8.00;88.30
73137;DHT22;62977;45.636;11.750;2023-01-16T06:44:04;8.10;88.30
73137;DHT22;62977;45.636;11.750;2023-01-16T06:46:30;8.00;88.30
73137;DHT22;62977;45.636;11.750;2023-01-16T06:48:58;8.10;88.40
73137;DHT22;62977;45.636;11.750;2023-01-16T06:51:24;8.10;88.40
73137;DHT22;62977;45.636;11.750;2023-01-16T06:53:49;8.00;88.60
73137;DHT22;62977;45.636;11.750;2023-01-16T06:56:15;7.90;89.00
73137;DHT22;62977;45.636;11.750;2023-01-16T06:58:42;7.90;89.30
73137;DHT22;62977;45.636;11.750;2023-01-16T07:01:08;7.90;89.50
73137;DHT22;62977;45.636;11.750;2023-01-16T07:03:34;7.90;89.50
73137;DHT22;62977;45.636;11.750;2023-01-16T07:06:00;7.90;89.50
73137;DHT22;62977;45.636;11.750;2023-01-16T07:08:26;7.90;89.40
73137;DHT22;62977;45.636;11.750;2023-01-16T07:10:52;7.90;89.60
73137;DHT22;62977;45.636;11.750;2023-01-16T07:13:17;7.90;89.60
73137;DHT22;62977;45.636;11.750;2023-01-16T07:15:47;7.80;89.80
73137;DHT22;62977;45.636;11.750;2023-01-16T07:18:31;7.60;90.10
73137;DHT22;62977;45.636;11.750;2023-01-16T07:21:16;7.80;90.20
73137;DHT22;62977;45.636;11.750;2023-01-16T07:24:07;7.90;90.20
73137;DHT22;62977;45.636;11.750;2023-01-16T07:26:35;7.80;90.00
73137;DHT22;62977;45.636;11.750;2023-01-16T07:29:02;8.00;89.90
73137;DHT22;62977;45.636;11.750;2023-01-16T07:31:28;8.10;89.80
73137;DHT22;62977;45.636;11.750;2023-01-16T07:33:54;8.20;89.40
73137;DHT22;62977;45.636;11.750;2023-01-16T07:36:20;8.20;89.50
73137;DHT22;62977;45.636;11.750;2023-01-16T07:38:46;8.30;89.30
73137;DHT22;62977;45.636;11.750;2023-01-16T07:41:11;8.30;88.70
73137;DHT22;62977;45.636;11.750;2023-01-16T07:43:37;8.30;89.10
73137;DHT22;62977;45.636;11.750;2023-01-16T07:46:03;8.30;88.90
73137;DHT22;62977;45.636;11.750;2023-01-16T07:48:28;8.30;88.50
73137;DHT22;62977;45.636;11.750;2023-01-16T07:50:56;8.30;88.90
73137;DHT22;62977;45.636;11.750;2023-01-16T07:53:24;8.30;88.70
73137;DHT22;62977;45.636;11.750;2023-01-16T07:55:51;8.30;88.70
73137;DHT22;62977;45.636;11.750;2023-01-16T07:58:18;8.20;88.90
73137;DHT22;62977;45.636;11.750;2023-01-16T08:00:45;8.40;88.70
73137;DHT22;62977;45.636;11.750;2023-01-16T08:03:11;8.30;88.80
73137;DHT22;62977;45.636;11.750;2023-01-16T08:05:38;8.30;88.70
73137;DHT22;62977;45.636;11.750;2023-01-16T08:08:04;8.30;88.70
73137;DHT22;62977;45.636;11.750;2023-01-16T08:10:29;8.30;88.70
73137;DHT22;62977;45.636;11.750;2023-01-16T08:12:55;8.30;88.60
73137;DHT22;62977;45.636;11.750;2023-01-16T08:15:21;8.30;88.80
73137;DHT22;62977;45.636;11.750;2023-01-16T08:17:47;8.40;88.80
73137;DHT22;62977;45.636;11.750;2023-01-16T08:20:13;8.50;88.50
73137;DHT22;62977;45.636;11.750;2023-01-16T08:22:49;8.70;88.70
73137;DHT22;62977;45.636;11.750;2023-01-16T08:25:16;8.70;88.40
73137;DHT22;62977;45.636;11.750;2023-01-16T08:27:42;8.70;88.30
73137;DHT22;62977;45.636;11.750;2023-01-16T08:30:09;8.80;88.30
73137;DHT22;62977;45.636;11.750;2023-01-16T08:32:35;8.90;88.10
73137;DHT22;62977;45.636;11.750;2023-01-16T08:35:02;8.90;87.80
73137;DHT22;62977;45.636;11.750;2023-01-16T08:37:29;9.00;87.60
73137;DHT22;62977;45.636;11.750;2023-01-16T08:39:55;8.90;87.60
73137;DHT22;62977;45.636;11.750;2023-01-16T08:42:22;8.90;87.60
73137;DHT22;62977;45.636;11.750;2023-01-16T08:45:08;9.00;87.70
73137;DHT22;62977;45.636;11.750;2023-01-16T08:47:53;9.00;87.60
73137;DHT22;62977;45.636;11.750;2023-01-16T08:50:37;9.10;87.60
73137;DHT22;62977;45.636;11.750;2023-01-16T08:53:22;9.20;87.50
73137;DHT22;62977;45.636;11.750;2023-01-16T08:55:47;9.30;87.40
73137;DHT22;62977;45.636;11.750;2023-01-16T08:58:14;9.20;87.10
73137;DHT22;62977;45.636;11.750;2023-01-16T09:00:40;9.10;87.50
73137;DHT22;62977;45.636;11.750;2023-01-16T09:03:06;9.10;86.90
73137;DHT22;62977;45.636;11.750;2023-01-16T09:05:32;9.20;87.00
73137;DHT22;62977;45.636;11.750;2023-01-16T09:07:57;9.30;86.20
73137;DHT22;62977;45.636;11.750;2023-01-16T09:10:23;9.40;86.00
73137;DHT22;62977;45.636;11.750;2023-01-16T09:12:50;9.40;85.80
73137;DHT22;62977;45.636;11.750;2023-01-16T09:15:34;9.30;86.00
73137;DHT22;62977;45.636;11.750;2023-01-16T09:18:00;9.40;86.30
73137;DHT22;62977;45.636;11.750;2023-01-16T09:20:26;9.40;86.10
73137;DHT22;62977;45.636;11.750;2023-01-16T09:22:57;9.60;85.90
73137;DHT22;62977;45.636;11.750;2023-01-16T09:25:23;9.80;86.00
73137;DHT22;62977;45.636;11.750;2023-01-16T09:27:49;10.00;85.60
73137;DHT22;62977;45.636;11.750;2023-01-16T09:30:15;10.00;85.40
73137;DHT22;62977;45.636;11.750;2023-01-16T09:32:40;10.10;85.00
73137;DHT22;62977;45.636;11.750;2023-01-16T09:35:06;10.00;85.00
73137;DHT22;62977;45.636;11.750;2023-01-16T09:37:32;9.90;85.40
73137;DHT22;62977;45.636;11.750;2023-01-16T09:39:57;9.90;85.70
73137;DHT22;62977;45.636;11.750;2023-01-16T09:42:38;9.80;84.30
73137;DHT22;62977;45.636;11.750;2023-01-16T09:45:30;9.90;83.90
73137;DHT22;62977;45.636;11.750;2023-01-16T09:48:01;10.00;84.20
73137;DHT22;62977;45.636;11.750;2023-01-16T09:50:42;10.00;84.10
73137;DHT22;62977;45.636;11.750;2023-01-16T09:53:41;10.00;84.00
73137;DHT22;62977;45.636;11.750;2023-01-16T09:56:42;10.00;84.10
73137;DHT22;62977;45.636;11.750;2023-01-16T09:59:46;9.80;84.10
73137;DHT22;62977;45.636;11.750;2023-01-16T10:02:28;9.90;84.20
73137;DHT22;62977;45.636;11.750;2023-01-16T10:04:57;10.00;84.00
73137;DHT22;62977;45.636;11.750;2023-01-16T10:07:31;10.10;83.90
73137;DHT22;62977;45.636;11.750;2023-01-16T10:12:54;10.20;84.20
73137;DHT22;62977;45.636;11.750;2023-01-16T10:16:02;10.30;84.00
73137;DHT22;62977;45.636;11.750;2023-01-16T10:27:39;10.50;83.20
73137;DHT22;62977;45.636;11.750;2023-01-16T10:30:17;10.40;82.50
73137;DHT22;62977;45.636;11.750;2023-01-16T10:32:50;10.30;82.60
73137;DHT22;62977;45.636;11.750;2023-01-16T10:35:23;10.20;81.80
73137;DHT22;62977;45.636;11.750;2023-01-16T10:37:51;10.10;82.20
73137;DHT22;62977;45.636;11.750;2023-01-16T10:40:21;10.20;82.20
73137;DHT22;62977;45.636;11.750;2023-01-16T10:43:08;10.50;82.10
73137;DHT22;62977;45.636;11.750;2023-01-16T10:45:55;10.50;82.00
73137;DHT22;62977;45.636;11.750;2023-01-16T10:48:43;10.50;81.90
73137;DHT22;62977;45.636;11.750;2023-01-16T10:51:27;11.00;81.90
73137;DHT22;62977;45.636;11.750;2023-01-16T10:53:52;10.80;81.80
73137;DHT22;62977;45.636;11.750;2023-01-16T10:56:18;10.80;81.20
73137;DHT22;62977;45.636;11.750;2023-01-16T10:58:44;10.90;81.30
73137;DHT22;62977;45.636;11.750;2023-01-16T11:01:22;10.50;81.30
73137;DHT22;62977;45.636;11.750;2023-01-16T11:03:51;10.40;81.80
73137;DHT22;62977;45.636;11.750;2023-01-16T11:06:26;10.40;81.90
73137;DHT22;62977;45.636;11.750;2023-01-16T11:09:05;10.30;82.20
73137;DHT22;62977;45.636;11.750;2023-01-16T11:11:34;10.20;81.90
73137;DHT22;62977;45.636;11.750;2023-01-16T11:14:22;9.90;81.80
73137;DHT22;62977;45.636;11.750;2023-01-16T11:20:02;10.10;81.80
73137;DHT22;62977;45.636;11.750;2023-01-16T11:22:28;10.20;82.00
73137;DHT22;62977;45.636;11.750;2023-01-16T11:24:58;10.30;81.20
73137;DHT22;62977;45.636;11.750;2023-01-16T11:27:28;10.20;81.40
73137;DHT22;62977;45.636;11.750;2023-01-16T11:29:56;10.20;81.60
73137;DHT22;62977;45.636;11.750;2023-01-16T11:32:24;9.90;81.90
73137;DHT22;62977;45.636;11.750;2023-01-16T11:34:57;9.90;82.30
73137;DHT22;62977;45.636;11.750;2023-01-16T11:37:26;9.70;82.00
73137;DHT22;62977;45.636;11.750;2023-01-16T11:39:54;9.60;82.30
73137;DHT22;62977;45.636;11.750;2023-01-16T11:42:20;9.60;81.90
73137;DHT22;62977;45.636;11.750;2023-01-16T11:45:13;9.70;82.30
73137;DHT22;62977;45.636;11.750;2023-01-16T11:48:01;9.80;82.00
73137;DHT22;62977;45.636;11.750;2023-01-16T11:50:56;10.00;81.70
73137;DHT22;62977;45.636;11.750;2023-01-16T11:53:22;10.20;81.00
73137;DHT22;62977;45.636;11.750;2023-01-16T12:04:06;10.40;81.70
73137;DHT22;62977;45.636;11.750;2023-01-16T12:07:14;10.50;81.40
73137;DHT22;62977;45.636;11.750;2023-01-16T12:12:34;10.20;80.80
73137;DHT22;62977;45.636;11.750;2023-01-16T12:15:42;10.00;80.90
73137;DHT22;62977;45.636;11.750;2023-01-16T12:18:24;10.10;81.20
73137;DHT22;62977;45.636;11.750;2023-01-16T12:21:01;9.90;81.20
73137;DHT22;62977;45.636;11.750;2023-01-16T12:24:11;9.90;81.50
73137;DHT22;62977;45.636;11.750;2023-01-16T12:32:15;9.70;81.80
73137;DHT22;62977;45.636;11.750;2023-01-16T12:42:34;9.30;82.10
73137;DHT22;62977;45.636;11.750;2023-01-16T12:45:43;9.10;82.80
73137;DHT22;62977;45.636;11.750;2023-01-16T12:48:39;9.20;82.80
73137;DHT22;62977;45.636;11.750;2023-01-16T12:59:21;9.20;83.70
73137;DHT22;62977;45.636;11.750;2023-01-16T13:01:51;9.10;83.40
73137;DHT22;62977;45.636;11.750;2023-01-16T13:04:24;8.90;83.50
73137;DHT22;62977;45.636;11.750;2023-01-16T13:06:56;8.80;83.90
73137;DHT22;62977;45.636;11.750;2023-01-16T13:12:05;8.80;84.10
73137;DHT22;62977;45.636;11.750;2023-01-16T13:14:54;8.80;84.10
73137;DHT22;62977;45.636;11.750;2023-01-16T13:17:25;8.90;83.60
73137;DHT22;62977;45.636;11.750;2023-01-16T13:19:53;9.00;83.60
73137;DHT22;62977;45.636;11.750;2023-01-16T13:22:28;9.00;83.30
73137;DHT22;62977;45.636;11.750;2023-01-16T13:25:26;9.10;83.10
73137;DHT22;62977;45.636;11.750;2023-01-16T13:27:58;8.70;83.70
73137;DHT22;62977;45.636;11.750;2023-01-16T13:30:25;8.70;84.60
73137;DHT22;62977;45.636;11.750;2023-01-16T13:32:56;8.70;84.10
73137;DHT22;62977;45.636;11.750;2023-01-16T13:38:28;8.80;84.40
73137;DHT22;62977;45.636;11.750;2023-01-16T13:41:08;8.70;84.00
73137;DHT22;62977;45.636;11.750;2023-01-16T13:43:43;8.80;84.40
73137;DHT22;62977;45.636;11.750;2023-01-16T13:46:29;8.60;84.60
73137;DHT22;62977;45.636;11.750;2023-01-16T13:49:00;8.70;84.50
73137;DHT22;62977;45.636;11.750;2023-01-16T13:51:26;8.70;84.40
73137;DHT22;62977;45.636;11.750;2023-01-16T13:53:58;8.60;84.70
73137;DHT22;62977;45.636;11.750;2023-01-16T13:56:26;8.60;84.70
73137;DHT22;62977;45.636;11.750;2023-01-16T13:59:04;8.70;84.40
73137;DHT22;62977;45.636;11.750;2023-01-16T14:04:32;8.80;84.20
73137;DHT22;62977;45.636;11.750;2023-01-16T14:07:00;8.80;84.20
73137;DHT22;62977;45.636;11.750;2023-01-16T14:13:21;9.00;84.20
73137;DHT22;62977;45.636;11.750;2023-01-16T14:21:24;8.80;84.30
73137;DHT22;62977;45.636;11.750;2023-01-16T14:23:57;8.70;83.80
73137;DHT22;62977;45.636;11.750;2023-01-16T14:26:52;8.70;84.00
73137;DHT22;62977;45.636;11.750;2023-01-16T14:29:28;8.70;84.00
73137;DHT22;62977;45.636;11.750;2023-01-16T14:34:50;8.70;84.60
73137;DHT22;62977;45.636;11.750;2023-01-16T14:37:39;8.80;84.80
73137;DHT22;62977;45.636;11.750;2023-01-16T14:42:51;8.50;85.30
73137;DHT22;62977;45.636;11.750;2023-01-16T14:45:41;8.40;85.20
73137;DHT22;62977;45.636;11.750;2023-01-16T14:51:33;8.30;85.60
73137;DHT22;62977;45.636;11.750;2023-01-16T14:57:19;8.20;85.80
73137;DHT22;62977;45.636;11.750;2023-01-16T14:59:58;8.30;85.80
73137;DHT22;62977;45.636;11.750;2023-01-16T15:02:37;8.20;86.00
73137;DHT22;62977;45.636;11.750;2023-01-16T15:05:14;8.20;86.10
73137;DHT22;62977;45.636;11.750;2023-01-16T15:07:56;8.20;86.20
73137;DHT22;62977;45.636;11.750;2023-01-16T15:10:36;8.30;86.30
73137;DHT22;62977;45.636;11.750;2023-01-16T15:13:18;8.30;86.10
73137;DHT22;62977;45.636;11.750;2023-01-16T15:16:04;8.30;86.40
73137;DHT22;62977;45.636;11.750;2023-01-16T15:18:30;8.30;86.20
73137;DHT22;62977;45.636;11.750;2023-01-16T15:21:19;8.30;86.40
73137;DHT22;62977;45.636;11.750;2023-01-16T15:24:06;8.30;86.00
73137;DHT22;62977;45.636;11.750;2023-01-16T15:26:58;8.40;86.10
73137;DHT22;62977;45.636;11.750;2023-01-16T15:32:11;8.60;86.10
73137;DHT22;62977;45.636;11.750;2023-01-16T15:34:42;8.50;86.40
73137;DHT22;62977;45.636;11.750;2023-01-16T15:37:22;8.50;86.20
73137;DHT22;62977;45.636;11.750;2023-01-16T15:39:49;8.50;86.50
73137;DHT22;62977;45.636;11.750;2023-01-16T15:45:15;8.60;86.40
73137;DHT22;62977;45.636;11.750;2023-01-16T15:48:13;8.50;86.50
73137;DHT22;62977;45.636;11.750;2023-01-16T15:51:00;8.50;86.50
73137;DHT22;62977;45.636;11.750;2023-01-16T15:53:39;8.50;86.50
73137;DHT22;62977;45.636;11.750;2023-01-16T15:56:21;8.40;86.30
73137;DHT22;62977;45.636;11.750;2023-01-16T15:58:47;8.50;86.30
73137;DHT22;62977;45.636;11.750;2023-01-16T16:01:14;8.40;86.70
73137;DHT22;62977;45.636;11.750;2023-01-16T16:03:44;8.40;86.60
73137;DHT22;62977;45.636;11.750;2023-01-16T16:06:13;8.30;86.50
73137;DHT22;62977;45.636;11.750;2023-01-16T16:08:45;8.20;86.80
73137;DHT22;62977;45.636;11.750;2023-01-16T16:11:20;8.20;86.60
73137;DHT22;62977;45.636;11.750;2023-01-16T16:14:05;8.10;86.90
73137;DHT22;62977;45.636;11.750;2023-01-16T16:17:03;8.10;86.70
73137;DHT22;62977;45.636;11.750;2023-01-16T16:19:47;8.00;86.90
73137;DHT22;62977;45.636;11.750;2023-01-16T16:22:18;8.10;86.70
73137;DHT22;62977;45.636;11.750;2023-01-16T16:27:46;8.00;86.70
73137;DHT22;62977;45.636;11.750;2023-01-16T16:30:22;8.00;86.90
73137;DHT22;62977;45.636;11.750;2023-01-16T16:32:50;7.90;86.70
73137;DHT22;62977;45.636;11.750;2023-01-16T16:35:32;8.00;86.60
73137;DHT22;62977;45.636;11.750;2023-01-16T16:37:59;8.00;86.50
73137;DHT22;62977;45.636;11.750;2023-01-16T16:40:26;7.90;86.40
73137;DHT22;62977;45.636;11.750;2023-01-16T16:42:53;7.90;86.60
73137;DHT22;62977;45.636;11.750;2023-01-16T16:45:31;7.90;86.80
73137;DHT22;62977;45.636;11.750;2023-01-16T16:48:30;7.90;86.30
73137;DHT22;62977;45.636;11.750;2023-01-16T16:51:11;8.00;86.20
73137;DHT22;62977;45.636;11.750;2023-01-16T16:53:45;7.90;86.50
73137;DHT22;62977;45.636;11.750;2023-01-16T16:56:13;7.90;86.80
73137;DHT22;62977;45.636;11.750;2023-01-16T16:58:45;7.90;86.60
73137;DHT22;62977;45.636;11.750;2023-01-16T17:01:16;7.90;86.80
73137;DHT22;62977;45.636;11.750;2023-01-16T17:03:43;7.90;86.70
73137;DHT22;62977;45.636;11.750;2023-01-16T17:06:20;8.00;86.70
73137;DHT22;62977;45.636;11.750;2023-01-16T17:08:46;7.80;86.70
73137;DHT22;62977;45.636;11.750;2023-01-16T17:11:12;7.90;86.70
73137;DHT22;62977;45.636;11.750;2023-01-16T17:13:38;7.90;86.90
73137;DHT22;62977;45.636;11.750;2023-01-16T17:16:07;7.90;87.00
73137;DHT22;62977;45.636;11.750;2023-01-16T17:18:36;7.90;86.80
73137;DHT22;62977;45.636;11.750;2023-01-16T17:21:02;7.80;87.00
73137;DHT22;62977;45.636;11.750;2023-01-16T17:23:27;7.90;87.00
73137;DHT22;62977;45.636;11.750;2023-01-16T17:25:53;7.80;87.00
73137;DHT22;62977;45.636;11.750;2023-01-16T17:28:19;7.80;87.10
73137;DHT22;62977;45.636;11.750;2023-01-16T17:30:44;7.70;86.90
73137;DHT22;62977;45.636;11.750;2023-01-16T17:33:13;7.80;86.90
73137;DHT22;62977;45.636;11.750;2023-01-16T17:35:43;7.80;87.00
73137;DHT22;62977;45.636;11.750;2023-01-16T17:38:14;7.80;86.90
73137;DHT22;62977;45.636;11.750;2023-01-16T17:40:40;7.80;86.90
73137;DHT22;62977;45.636;11.750;2023-01-16T17:43:09;7.80;86.80
73137;DHT22;62977;45.636;11.750;2023-01-16T17:45:55;7.80;87.00
73137;DHT22;62977;45.636;11.750;2023-01-16T17:48:23;7.70;86.60
73137;DHT22;62977;45.636;11.750;2023-01-16T17:50:49;7.80;86.60
73137;DHT22;62977;45.636;11.750;2023-01-16T17:53:17;7.70;86.20
73137;DHT22;62977;45.636;11.750;2023-01-16T17:55:45;7.70;86.50
73137;DHT22;62977;45.636;11.750;2023-01-16T17:58:22;7.70;86.90
73137;DHT22;62977;45.636;11.750;2023-01-16T18:01:02;7.60;86.60